Bei Facebook empfehlenBei Twitter postenGoogle plusPinterest

Das Wetter im Erzgebirge am 22.03.2016

Wetter und Klima am 22.03.2016 Holzhau im Erzgebirge (630m ü.NN)
Letzte gemessene Temperatur und Uhrzeit der Messung23:45:00 Uhr1.30 °C
Temperatur (Maximum / Höchstwert) und Uhrzeit der Messung15:15:00 Uhr5.20 °C
Temperatur (Minimum / Tiefstwert) und Uhrzeit der Messung04:15:000.20 °C
Errechneter Absolutwert der Temperaturschwankungen zwischen Tmin und Tmax des Tages5.00 K
Errechnete Tagesmitteltemperatur1.59271 °C
Gesamt - Niederschlag des Tages (in flüssiger Form)5.70 Liter / m²
Luftdruck (Maximum / Höchstwert) und Zeitpunkt der Messung00:15:00 Uhr1007.50 hPa
Luftdruck (Minimum / Tiefstwert) und Zeitpunkt der Messung15:45:00 Uhr1005.10 hPa
Errechneter Absolutwert der Luftdruckschwankungen des Tages2.40 hPa
Höchste gemessene Windgeschwindigkeit und Uhrzeit der Messung10:30:00 Uhr183.60 km/h
Errechnete Windhäufigkeit in Relation zu den Messwerten des Tages14.58333 %
Niedrigste Windkühle (Windchill) und Zeitpunkt der Messung10:30:00 Uhr-8.20 °C
Taupunkt (Maximum / Höchstwert) und Uhrzeit der Messung15:15:00 Uhr4.30 °C
Taupunkt (Minimum / Tiefstwert) und Uhrzeit der Messung04:15:00-0.60 °C
Anzahl der automatisch eingelesenen Messwerte 96

Detaillierte Wetter- und Klima- Messwerte für den 22.03.2016 in Holzhau im Erzgebirge (630m ü.NN)
ZeitTemperaturLuftdruckRel. LuftfeuchteWindWindrichtungWindchillTaupunktNiederschlag l/m²
23:45:001.30 °C1005.20 hPa94.00 %0.40 °C5.70
23:30:001.30 °C1005.30 hPa94.00 %0.40 °C5.70
23:15:001.30 °C1005.20 hPa94.00 %0.40 °C5.70
23:00:001.20 °C1005.40 hPa94.00 %0.30 °C5.70
22:45:001.10 °C1005.30 hPa94.00 %0.20 °C5.70
22:30:001.10 °C1005.40 hPa94.00 %0.20 °C5.70
22:15:001.10 °C1005.40 hPa94.00 %0.20 °C5.70
22:00:001.10 °C1005.60 hPa94.00 %0.20 °C5.70
21:45:001.00 °C1005.70 hPa94.00 %0.10 °C5.70
21:30:000.90 °C1005.80 hPa94.00 %0.00 °C5.70
21:15:000.80 °C1005.80 hPa93.00 %-0.20 °C5.70
21:00:000.90 °C1005.80 hPa93.00 %-0.10 °C5.70
20:45:001.00 °C1005.90 hPa93.00 %0.00 °C5.70
20:30:000.90 °C1006.00 hPa93.00 %-0.10 °C5.70
20:15:000.90 °C1005.90 hPa93.00 %-0.10 °C5.70
20:00:001.30 °C1006.00 hPa93.00 %0.30 °C5.70
19:45:001.50 °C1006.00 hPa93.00 %0.50 °C5.70
19:30:001.50 °C1005.90 hPa93.00 %0.50 °C5.70
19:15:001.50 °C1006.10 hPa93.00 %0.50 °C5.70
19:00:001.60 °C1005.80 hPa93.00 %0.60 °C5.70
18:45:001.60 °C1006.00 hPa93.00 %0.60 °C5.70
18:30:001.60 °C1006.10 hPa93.00 %0.60 °C5.70
18:15:001.60 °C1005.90 hPa93.00 %0.60 °C5.70
18:00:001.80 °C1005.90 hPa93.00 %0.80 °C5.18
17:45:001.80 °C1005.90 hPa93.00 %0.80 °C5.18
17:30:001.90 °C1005.70 hPa93.00 %0.90 °C5.18
17:15:001.90 °C1005.80 hPa92.00 %0.70 °C5.18
17:00:001.90 °C1005.80 hPa92.00 %0.70 °C5.18
16:45:001.80 °C1005.80 hPa92.00 %0.60 °C4.67
16:30:001.80 °C1005.80 hPa92.00 %0.60 °C4.67
16:15:002.70 °C1005.50 hPa91.00 %1.40 °C4.67
16:00:004.10 °C1005.30 hPa92.00 %2.90 °C4.67
15:45:004.80 °C1005.10 hPa92.00 %3.60 °C4.67
15:30:004.90 °C1005.40 hPa93.00 %3.90 °C4.67
15:15:005.20 °C1005.20 hPa94.00 %4.30 °C4.67
15:00:004.50 °C1005.40 hPa94.00 %3.60 °C4.67
14:45:003.90 °C1005.40 hPa94.00 %3.00 °C4.67
14:30:003.10 °C1005.40 hPa95.00 %2.40 °C4.67
14:15:002.90 °C1005.60 hPa94.00 %2.00 °C4.15
14:00:003.60 °C1005.60 hPa95.00 %2.90 °C4.15
13:45:003.80 °C1005.70 hPa95.00 %3.10 °C4.15
13:30:003.40 °C1005.90 hPa95.00 %2.70 °C4.15
13:15:002.80 °C1006.00 hPa94.00 %1.90 °C4.15
13:00:003.40 °C1006.00 hPa95.00 %2.70 °C4.15
12:45:003.30 °C1006.20 hPa95.00 %2.60 °C4.15
12:30:002.90 °C1006.30 hPa95.00 %2.20 °C4.15
12:15:002.40 °C1006.20 hPa95.00 %1.70 °C4.15
12:00:001.90 °C1006.20 hPa95.00 %1.20 °C4.15
11:45:001.90 °C1006.20 hPa95.00 %1.20 °C4.15
11:30:002.00 °C1006.10 hPa95.00 %3.24 km/hNNW2.00 °C1.30 °C4.15
11:15:002.10 °C1006.10 hPa95.00 %1.40 °C4.15
11:00:002.50 °C1006.30 hPa95.00 %1.80 °C4.15
10:45:002.70 °C1006.30 hPa95.00 %2.00 °C3.63
10:30:003.20 °C1006.30 hPa96.00 %183.60 km/hWSW-8.20 °C2.60 °C3.63
10:15:002.80 °C1006.20 hPa96.00 %2.16 km/hNNW2.80 °C2.20 °C3.63
10:00:002.40 °C1006.30 hPa96.00 %1.80 °C3.63
09:45:001.90 °C1006.30 hPa95.00 %1.20 °C3.63
09:30:001.60 °C1006.20 hPa95.00 %7.56 km/hWNW-0.70 °C0.90 °C3.11
09:15:001.70 °C1006.20 hPa95.00 %1.00 °C3.11
09:00:001.60 °C1006.20 hPa95.00 %0.90 °C3.11
08:45:001.40 °C1006.20 hPa95.00 %0.70 °C3.11
08:30:001.30 °C1006.20 hPa95.00 %22.68 km/hWNW-4.00 °C0.60 °C2.59
08:15:001.30 °C1006.40 hPa95.00 %0.60 °C2.59
08:00:001.30 °C1006.40 hPa95.00 %7.56 km/hSW-1.10 °C0.60 °C2.59
07:45:001.20 °C1006.50 hPa95.00 %0.50 °C2.59
07:30:001.00 °C1006.30 hPa95.00 %6.12 km/hWNW-0.90 °C0.30 °C2.08
07:15:000.80 °C1006.30 hPa95.00 %0.10 °C2.08
07:00:000.60 °C1006.50 hPa95.00 %-0.10 °C2.08
06:45:000.60 °C1006.40 hPa95.00 %-0.10 °C2.08
06:30:000.60 °C1006.40 hPa95.00 %5.76 km/hWNW-1.20 °C-0.10 °C2.08
06:15:000.60 °C1006.20 hPa95.00 %-0.10 °C1.56
06:00:000.50 °C1006.30 hPa95.00 %5.76 km/hWNW-1.40 °C-0.20 °C1.56
05:45:000.40 °C1006.30 hPa95.00 %-0.30 °C1.56
05:30:000.40 °C1006.20 hPa95.00 %-0.30 °C1.56
05:15:000.40 °C1006.50 hPa95.00 %-0.30 °C1.56
05:00:000.30 °C1006.40 hPa95.00 %-0.40 °C1.56
04:45:000.30 °C1006.60 hPa95.00 %6.12 km/hWNW-1.70 °C-0.40 °C1.56
04:30:000.30 °C1006.40 hPa94.00 %6.12 km/hWSW-1.70 °C-0.50 °C1.04
04:15:000.20 °C1006.60 hPa94.00 %-0.60 °C1.04
04:00:000.20 °C1006.50 hPa94.00 %-0.60 °C1.04
03:45:000.20 °C1006.50 hPa94.00 %6.48 km/hWSW-2.00 °C-0.60 °C1.04
03:30:000.20 °C1006.60 hPa94.00 %5.76 km/hWNW-1.70 °C-0.60 °C1.04
03:15:000.20 °C1006.50 hPa94.00 %6.12 km/hWNW-1.80 °C-0.60 °C1.04
03:00:000.20 °C1006.60 hPa94.00 %-0.60 °C1.04
02:45:000.30 °C1006.80 hPa94.00 %-0.50 °C1.04
02:30:000.30 °C1006.90 hPa94.00 %-0.50 °C1.04
02:15:000.40 °C1007.00 hPa94.00 %-0.50 °C1.04
02:00:000.50 °C1007.00 hPa94.00 %-0.40 °C1.04
01:45:000.70 °C1007.10 hPa94.00 %-0.20 °C1.04
01:30:000.90 °C1007.10 hPa94.00 %0.00 °C1.04
01:15:001.10 °C1007.10 hPa94.00 %0.20 °C1.04
01:00:001.00 °C1007.30 hPa94.00 %0.10 °C0.52
00:45:000.80 °C1007.30 hPa94.00 %-0.10 °C0.52
00:30:000.50 °C1007.20 hPa94.00 %-0.40 °C0.52
00:15:000.40 °C1007.50 hPa94.00 %-0.50 °C 
00:00:000.50 °C1007.50 hPa94.00 %-0.40 °C 

Permanenter Link zu dieser Seite: Wetter im Erzgebirge am 22.03.2016
Performance-Info: Die Erstellung der Seite / Statistik(en) / Tabelle(n) erforderte 5 Datenbankserver-Abfrage(n) und dauerte 75 Millisekunden. (Dieser Messwert ist von der Gesamt-Auslastung des Servers abhängig.)
Erzgebirge - Wetter | Erzgebirge - Wetter (Mobilgeräte) | Komplette Klimadatenbank